Time;durP1;ratioP1;P1;durP2;ratioP2;P2;SDS_P1;SDS_P2;PMS_P1;PMS_P2;Temp;Humidity;BMP_temperature;BMP_pressure;BME280_temperature;BME280_humidity;BME280_pressure;Samples;Min_cycle;Max_cycle;Signal;HPM_P1;HPM_P2
2021/05/25 00:00:46;;;;;;;3.95;1.05;;;;;;;12.48;100.00;97262.94;5058575;28;20049;-83
2021/05/25 00:03:15;;;;;;;4.63;1.10;;;;;;;12.48;100.00;97282.75;5058954;28;20071;-81
2021/05/25 00:05:42;;;;;;;2.67;1.00;;;;;;;12.49;100.00;97280.81;5040771;28;20128;-82
2021/05/25 00:08:09;;;;;;;4.82;1.20;;;;;;;12.46;100.00;97286.91;5039933;28;20041;-83
2021/05/25 00:10:36;;;;;;;3.58;1.20;;;;;;;12.40;100.00;97288.25;5040338;28;20044;-85
2021/05/25 00:13:03;;;;;;;2.58;1.10;;;;;;;12.39;100.00;97287.44;5041960;28;20063;-82
2021/05/25 00:15:33;;;;;;;1.17;0.77;;;;;;;12.39;100.00;97287.44;5031668;28;20041;-82
2021/05/25 00:18:03;;;;;;;3.70;1.10;;;;;;;12.36;100.00;97282.69;5072487;28;20051;-83
2021/05/25 00:20:29;;;;;;;2.25;0.95;;;;;;;12.35;100.00;97281.13;5042515;28;20090;-84
2021/05/25 00:22:59;;;;;;;3.92;1.02;;;;;;;12.29;100.00;97282.44;5032096;28;20080;-83
2021/05/25 00:25:26;;;;;;;3.95;1.30;;;;;;;12.34;100.00;97276.81;5044386;28;20044;-83
2021/05/25 00:27:55;;;;;;;2.22;1.00;;;;;;;12.35;100.00;97272.19;5044814;28;20044;-83
2021/05/25 00:30:22;;;;;;;1.77;0.98;;;;;;;12.23;100.00;97266.72;5043483;28;20087;-83
2021/05/25 00:32:50;;;;;;;2.83;1.02;;;;;;;12.25;100.00;97262.53;5044166;28;20072;-83
2021/05/25 00:35:18;;;;;;;3.80;0.98;;;;;;;12.21;100.00;97256.19;5065514;28;20131;-83
2021/05/25 00:37:45;;;;;;;1.17;0.80;;;;;;;12.23;100.00;97261.28;5064970;28;20048;-83
2021/05/25 00:40:13;;;;;;;1.63;0.70;;;;;;;12.22;100.00;97265.13;5048799;28;20063;-82
2021/05/25 00:42:42;;;;;;;2.10;0.93;;;;;;;12.14;100.00;97261.34;5064943;28;20053;-82
2021/05/25 00:45:09;;;;;;;2.65;1.15;;;;;;;12.17;100.00;97251.75;5047732;28;20052;-83
2021/05/25 00:47:38;;;;;;;2.60;0.88;;;;;;;12.12;100.00;97244.63;5080274;28;20063;-84
2021/05/25 00:50:11;;;;;;;1.63;0.90;;;;;;;12.12;100.00;97239.19;5065281;28;20049;-84
2021/05/25 00:52:43;;;;;;;1.90;0.90;;;;;;;12.07;100.00;97236.69;5067485;28;20068;-84
2021/05/25 00:55:24;;;;;;;7.07;0.98;;;;;;;12.09;100.00;97236.34;5070102;28;20051;-84
2021/05/25 00:57:53;;;;;;;1.63;0.82;;;;;;;12.07;100.00;97241.31;5063960;28;20048;-83
2021/05/25 01:00:36;;;;;;;4.63;1.20;;;;;;;12.00;100.00;97236.41;5057038;28;20043;-82
2021/05/25 01:03:03;;;;;;;2.85;1.00;;;;;;;11.95;100.00;97231.22;5048577;28;20048;-83
2021/05/25 01:05:31;;;;;;;2.90;1.10;;;;;;;11.95;100.00;97242.06;5051706;28;20090;-84
2021/05/25 01:07:58;;;;;;;2.35;1.10;;;;;;;11.91;100.00;97243.84;5051491;28;20055;-83
2021/05/25 01:10:32;;;;;;;2.33;0.93;;;;;;;11.87;100.00;97254.56;5067486;28;20047;-82
2021/05/25 01:13:04;;;;;;;2.25;0.88;;;;;;;11.85;100.00;97256.03;5067882;28;20045;-83
2021/05/25 01:15:32;;;;;;;1.48;0.88;;;;;;;11.86;100.00;97258.44;5085690;28;20036;-83
2021/05/25 01:18:00;;;;;;;1.98;0.90;;;;;;;11.90;100.00;97274.03;5068635;28;20044;-83
2021/05/25 01:20:29;;;;;;;3.65;1.33;;;;;;;11.88;100.00;97277.88;5085324;28;20040;-83
2021/05/25 01:22:58;;;;;;;3.00;1.00;;;;;;;11.90;100.00;97279.47;5053330;28;20079;-84
2021/05/25 01:25:26;;;;;;;3.33;0.88;;;;;;;11.87;100.00;97280.91;5052884;28;20056;-84
2021/05/25 01:28:03;;;;;;;2.33;1.10;;;;;;;11.71;100.00;97267.16;5068914;28;20555;-83
2021/05/25 01:30:33;;;;;;;2.47;1.10;;;;;;;11.50;100.00;97260.09;5070057;28;20071;-83
2021/05/25 01:33:02;;;;;;;3.85;1.08;;;;;;;11.41;100.00;97262.88;5054272;28;20522;-85
2021/05/25 01:35:30;;;;;;;2.00;1.10;;;;;;;11.36;100.00;97262.25;5052526;28;20037;-82
2021/05/25 01:37:58;;;;;;;3.65;1.20;;;;;;;11.26;100.00;97256.13;5058663;28;20044;-84
2021/05/25 01:40:26;;;;;;;2.63;1.10;;;;;;;11.27;100.00;97251.50;5076470;28;20041;-83
2021/05/25 01:42:53;;;;;;;2.88;1.15;;;;;;;11.22;100.00;97263.31;5062943;28;20046;-84
2021/05/25 01:45:26;;;;;;;1.67;1.20;;;;;;;11.11;100.00;97289.19;5075504;28;20124;-83
2021/05/25 01:47:58;;;;;;;2.80;1.15;;;;;;;11.00;100.00;97285.25;5072336;28;20040;-83
2021/05/25 01:50:26;;;;;;;2.35;1.10;;;;;;;10.98;100.00;97290.22;5052400;28;20077;-83
2021/05/25 01:53:03;;;;;;;2.72;1.25;;;;;;;10.95;100.00;97296.25;5053088;28;20450;-83
2021/05/25 01:55:40;;;;;;;6.25;1.33;;;;;;;10.92;100.00;97298.81;5069768;28;20041;-83
2021/05/25 01:58:14;;;;;;;2.58;1.13;;;;;;;10.89;100.00;97294.06;5086774;28;20491;-83
2021/05/25 02:00:48;;;;;;;2.28;1.00;;;;;;;10.88;100.00;97296.00;5087042;28;20135;-82
2021/05/25 02:03:15;;;;;;;5.70;1.10;;;;;;;10.89;100.00;97294.84;5068267;28;20044;-84
2021/05/25 02:05:42;;;;;;;3.65;1.10;;;;;;;10.90;100.00;97299.16;5052284;28;20048;-83
2021/05/25 02:08:09;;;;;;;2.22;1.13;;;;;;;10.94;100.00;97302.78;5074691;28;20077;-84
2021/05/25 02:10:39;;;;;;;2.50;1.10;;;;;;;10.86;100.00;97309.06;5062543;28;20048;-84
2021/05/25 02:13:19;;;;;;;4.35;1.10;;;;;;;10.85;100.00;97314.78;5077374;28;20060;-83
2021/05/25 02:18:24;;;;;;;4.30;1.02;;;;;;;10.80;100.00;97302.22;5028055;28;20049;-74
2021/05/25 02:20:54;;;;;;;2.28;1.10;;;;;;;10.81;100.00;97303.81;4982114;28;20227;-75
2021/05/25 02:23:21;;;;;;;4.28;1.10;;;;;;;10.82;100.00;97293.75;5037039;28;20104;-75
2021/05/25 02:25:48;;;;;;;2.95;1.10;;;;;;;10.86;100.00;97297.44;4970325;28;20100;-75
2021/05/25 02:28:15;;;;;;;3.60;0.95;;;;;;;10.89;100.00;97281.31;4970586;28;20194;-74
2021/05/25 02:30:42;;;;;;;3.58;1.10;;;;;;;10.91;100.00;97278.28;4970852;28;20047;-74
2021/05/25 02:33:11;;;;;;;2.50;1.17;;;;;;;10.91;100.00;97281.00;4970440;28;20329;-73
2021/05/25 02:35:40;;;;;;;4.00;1.05;;;;;;;10.87;100.00;97274.63;4970496;28;20046;-74
2021/05/25 02:38:09;;;;;;;3.92;1.10;;;;;;;10.92;100.00;97286.06;4967791;28;20054;-74
2021/05/25 02:40:36;;;;;;;4.57;1.00;;;;;;;10.91;100.00;97289.94;4970336;28;20051;-74
2021/05/25 02:43:11;;;;;;;4.38;1.00;;;;;;;10.91;100.00;97298.06;4970397;28;20053;-75
2021/05/25 02:45:37;;;;;;;3.85;1.30;;;;;;;10.94;100.00;97299.31;4970319;28;20588;-74
2021/05/25 02:48:05;;;;;;;1.80;0.93;;;;;;;11.10;100.00;97289.50;5037204;28;20043;-74
2021/05/25 02:50:33;;;;;;;6.47;0.85;;;;;;;11.11;100.00;97286.47;4969627;28;20219;-76
2021/05/25 02:52:59;;;;;;;5.22;1.00;;;;;;;11.20;100.00;97289.94;4969875;28;20092;-76
2021/05/25 02:55:29;;;;;;;3.42;1.23;;;;;;;11.16;100.00;97283.59;4969975;28;20043;-75
2021/05/25 02:57:57;;;;;;;6.00;1.02;;;;;;;11.12;100.00;97279.91;4969919;28;20054;-76
2021/05/25 03:00:36;;;;;;;3.80;0.90;;;;;;;11.11;100.00;97291.91;5020694;28;20047;-75
2021/05/25 03:03:03;;;;;;;2.95;0.90;;;;;;;11.05;100.00;97286.97;4968137;28;20053;-75
2021/05/25 03:05:30;;;;;;;1.65;0.85;;;;;;;11.00;100.00;97290.66;4970109;28;20035;-75
2021/05/25 03:07:59;;;;;;;3.92;1.10;;;;;;;11.00;100.00;97290.66;4970150;28;20047;-74
2021/05/25 03:10:30;;;;;;;3.95;0.80;;;;;;;11.01;100.00;97286.84;5020250;28;20047;-75
2021/05/25 03:12:57;;;;;;;4.15;0.90;;;;;;;10.95;100.00;97281.94;4969633;28;20047;-73
2021/05/25 03:15:29;;;;;;;2.25;1.00;;;;;;;10.94;100.00;97270.28;5035969;28;20390;-74
2021/05/25 03:17:58;;;;;;;4.68;1.10;;;;;;;10.84;100.00;97295.03;5020321;28;20514;-75
2021/05/25 03:20:25;;;;;;;1.98;0.73;;;;;;;10.83;100.00;97319.72;4969682;28;20043;-74
2021/05/25 03:22:52;;;;;;;3.10;0.75;;;;;;;10.85;100.00;97353.50;4969884;28;20042;-75
2021/05/25 03:25:20;;;;;;;1.70;0.73;;;;;;;10.90;100.00;97344.41;4970218;28;20043;-75
2021/05/25 03:27:48;;;;;;;5.30;1.25;;;;;;;10.91;100.00;97349.50;4971544;28;20068;-74
2021/05/25 03:30:18;;;;;;;3.83;0.98;;;;;;;10.90;100.00;97358.72;4972039;28;20046;-75
2021/05/25 03:32:45;;;;;;;2.00;0.60;;;;;;;10.94;100.00;97350.78;4970337;28;20047;-74
2021/05/25 03:35:14;;;;;;;2.30;0.90;;;;;;;10.94;100.00;97337.22;5036691;28;20220;-75
2021/05/25 03:37:41;;;;;;;2.67;0.73;;;;;;;10.91;100.00;97330.53;5036437;28;20426;-74
2021/05/25 03:40:09;;;;;;;2.40;0.60;;;;;;;10.88;100.00;97341.22;5035952;28;20047;-73
2021/05/25 03:42:36;;;;;;;5.07;0.80;;;;;;;10.86;100.00;97333.44;4970063;28;20065;-74
2021/05/25 03:45:06;;;;;;;1.40;0.60;;;;;;;10.78;100.00;97322.63;5036154;28;20047;-75
2021/05/25 03:47:32;;;;;;;2.75;0.68;;;;;;;10.74;100.00;97317.03;4970272;28;20411;-73
2021/05/25 03:50:09;;;;;;;2.10;0.60;;;;;;;10.64;100.00;97312.78;4969858;28;20039;-74
2021/05/25 03:52:38;;;;;;;1.75;0.57;;;;;;;10.60;100.00;97333.50;4970289;28;20046;-75
2021/05/25 03:55:12;;;;;;;2.70;0.70;;;;;;;10.59;100.00;97353.56;5035143;28;20073;-75
2021/05/25 04:00:06;;;;;;;2.90;0.70;;;;;;;10.69;100.00;97338.06;4969266;28;20197;-75
2021/05/25 04:02:33;;;;;;;2.05;0.60;;;;;;;10.60;100.00;97346.25;5035275;28;20051;-74
2021/05/25 04:05:01;;;;;;;4.97;0.70;;;;;;;10.59;100.00;97350.84;5035969;28;20405;-74
2021/05/25 04:07:28;;;;;;;2.70;0.60;;;;;;;10.61;100.00;97340.50;4969672;28;20062;-74
2021/05/25 04:09:55;;;;;;;2.30;0.60;;;;;;;10.65;100.00;97324.41;5019706;28;20050;-77
2021/05/25 04:12:21;;;;;;;5.30;0.70;;;;;;;10.61;100.00;97337.78;5036191;28;20049;-76
2021/05/25 04:14:48;;;;;;;6.82;0.90;;;;;;;10.58;100.00;97354.66;4969072;28;20043;-76
2021/05/25 04:17:14;;;;;;;2.05;0.63;;;;;;;10.56;100.00;97359.59;4970047;28;20417;-76
2021/05/25 04:19:41;;;;;;;4.03;0.80;;;;;;;10.55;100.00;97368.88;4970392;28;20044;-76
2021/05/25 04:22:08;;;;;;;5.00;0.93;;;;;;;10.56;100.00;97383.16;5036422;28;20126;-76
2021/05/25 04:24:34;;;;;;;2.25;0.70;;;;;;;10.54;100.00;97369.97;4969235;28;20051;-75
2021/05/25 04:27:01;;;;;;;2.20;0.77;;;;;;;10.51;100.00;97389.53;5036012;28;20080;-76
2021/05/25 04:29:28;;;;;;;2.38;0.60;;;;;;;10.45;100.00;97373.81;4971961;28;20525;-77
2021/05/25 04:31:58;;;;;;;2.97;0.63;;;;;;;10.37;100.00;97375.41;4971410;28;20600;-75
2021/05/25 04:34:25;;;;;;;3.10;0.70;;;;;;;10.32;100.00;97353.94;4969858;28;20448;-75
2021/05/25 04:36:51;;;;;;;4.47;0.70;;;;;;;10.13;100.00;97349.94;4964586;28;20050;-76
2021/05/25 04:39:18;;;;;;;4.43;0.70;;;;;;;10.10;100.00;97364.88;5023622;28;20051;-76
2021/05/25 04:41:44;;;;;;;1.33;0.60;;;;;;;10.01;100.00;97370.25;4949354;29;20047;-75
2021/05/25 04:44:11;;;;;;;2.53;0.60;;;;;;;10.00;100.00;97381.41;4967031;28;20108;-75
2021/05/25 04:46:40;;;;;;;2.92;0.52;;;;;;;9.93;100.00;97378.38;5036928;28;20047;-75
2021/05/25 04:49:07;;;;;;;2.95;0.60;;;;;;;9.99;100.00;97385.22;5036526;28;20049;-75
2021/05/25 04:51:34;;;;;;;3.58;0.70;;;;;;;10.01;100.00;97404.66;4971369;28;20529;-77
2021/05/25 04:54:01;;;;;;;6.47;1.48;;;;;;;9.98;100.00;97410.69;5030796;28;20039;-75
2021/05/25 04:56:28;;;;;;;4.30;0.80;;;;;;;10.04;100.00;97403.97;4972175;28;20043;-74
2021/05/25 04:58:54;;;;;;;4.85;0.65;;;;;;;9.93;100.00;97400.81;4970999;28;20069;-75
2021/05/25 05:01:22;;;;;;;2.03;0.60;;;;;;;9.90;100.00;97412.25;4972621;28;20070;-74
2021/05/25 05:03:48;;;;;;;2.35;0.40;;;;;;;9.87;100.00;97423.69;5021228;28;20051;-74
2021/05/25 05:06:15;;;;;;;3.08;0.73;;;;;;;9.76;100.00;97438.63;4969495;28;20047;-75
2021/05/25 05:08:43;;;;;;;4.00;0.90;;;;;;;9.81;100.00;97451.19;4979670;28;20445;-75
2021/05/25 05:11:10;;;;;;;3.67;0.70;;;;;;;9.79;100.00;97446.09;4995872;28;20550;-75
2021/05/25 05:13:37;;;;;;;7.68;0.65;;;;;;;9.73;100.00;97436.53;4969463;28;20046;-77
2021/05/25 05:16:04;;;;;;;4.65;0.70;;;;;;;9.70;100.00;97442.59;4967321;28;20094;-75
2021/05/25 05:18:31;;;;;;;4.45;0.60;;;;;;;9.66;100.00;97436.19;4967568;28;20411;-75
2021/05/25 05:20:58;;;;;;;3.50;0.60;;;;;;;9.67;100.00;97443.22;4950510;28;20050;-73
2021/05/25 05:23:25;;;;;;;2.65;0.60;;;;;;;9.66;100.00;97451.63;4967776;28;20050;-76
2021/05/25 05:25:51;;;;;;;3.92;0.75;;;;;;;9.68;100.00;97463.72;4967442;28;20043;-73
2021/05/25 05:28:20;;;;;;;2.42;0.70;;;;;;;9.70;100.00;97458.81;4968336;28;20046;-74
2021/05/25 05:30:46;;;;;;;1.13;0.40;;;;;;;9.68;100.00;97457.53;4966653;28;20046;-74
2021/05/25 05:33:13;;;;;;;4.13;0.50;;;;;;;9.68;100.00;97458.31;4966615;28;20051;-78
2021/05/25 05:35:40;;;;;;;5.60;0.80;;;;;;;9.67;100.00;97470.25;4966154;28;20051;-75
2021/05/25 05:38:07;;;;;;;1.40;0.47;;;;;;;9.66;100.00;97465.13;4968075;28;20078;-77
2021/05/25 05:40:34;;;;;;;1.52;0.60;;;;;;;9.69;100.00;97464.50;4966551;28;20058;-76
2021/05/25 05:43:05;;;;;;;3.67;0.90;;;;;;;9.63;100.00;97471.16;4967415;28;20492;-75
2021/05/25 05:45:33;;;;;;;4.18;0.52;;;;;;;9.67;100.00;97464.03;4967831;28;20585;-77
2021/05/25 05:47:59;;;;;;;5.57;0.60;;;;;;;9.62;100.00;97461.47;5034897;28;20104;-77
2021/05/25 05:50:26;;;;;;;3.08;0.70;;;;;;;9.55;100.00;97453.03;4967465;28;20055;-76
2021/05/25 05:52:52;;;;;;;11.85;0.90;;;;;;;9.59;100.00;97459.38;5033936;28;20060;-77
2021/05/25 05:55:19;;;;;;;4.28;0.80;;;;;;;9.60;100.00;97456.34;4967048;28;20051;-76
2021/05/25 05:57:47;;;;;;;8.02;1.02;;;;;;;9.64;100.00;97459.25;5050702;28;20555;-77
2021/05/25 06:00:16;;;;;;;1.98;0.50;;;;;;;9.59;100.00;97460.19;5033174;28;20035;-76
2021/05/25 06:02:42;;;;;;;1.90;0.50;;;;;;;9.57;100.00;97464.31;5031683;28;20045;-77
2021/05/25 06:05:10;;;;;;;4.93;0.50;;;;;;;9.48;100.00;97456.16;5018319;28;20119;-77
2021/05/25 06:07:37;;;;;;;4.40;0.70;;;;;;;9.53;100.00;97447.91;5009315;28;20042;-74
2021/05/25 06:10:05;;;;;;;2.85;0.57;;;;;;;9.44;100.00;97459.81;5068245;28;20040;-75
2021/05/25 06:12:32;;;;;;;2.58;1.02;;;;;;;9.50;100.00;97464.75;5069012;28;20040;-75
2021/05/25 06:15:00;;;;;;;3.70;0.75;;;;;;;9.58;100.00;97468.59;5068474;28;20121;-75
2021/05/25 06:17:27;;;;;;;3.08;0.55;;;;;;;9.70;100.00;97458.81;5050660;28;20114;-74
2021/05/25 06:19:54;;;;;;;5.20;0.70;;;;;;;9.68;100.00;97479.16;5068659;28;20056;-77
2021/05/25 06:22:22;;;;;;;3.72;0.60;;;;;;;9.70;100.00;97458.81;5050768;28;20041;-74
2021/05/25 06:24:50;;;;;;;3.30;0.65;;;;;;;9.70;100.00;97472.31;5032120;28;20043;-74
2021/05/25 06:27:17;;;;;;;2.13;0.50;;;;;;;9.66;100.00;97473.25;4968980;28;20100;-75
2021/05/25 06:29:44;;;;;;;5.38;0.73;;;;;;;9.73;100.00;97479.00;4969787;28;20058;-74
2021/05/25 06:32:11;;;;;;;4.18;0.63;;;;;;;9.95;100.00;97487.81;4970428;28;20218;-73
2021/05/25 06:34:37;;;;;;;4.80;0.57;;;;;;;10.08;100.00;97475.28;5036876;28;20421;-74
2021/05/25 06:37:04;;;;;;;2.97;0.60;;;;;;;10.15;100.00;97464.00;4970419;28;20387;-77
2021/05/25 06:39:30;;;;;;;1.80;0.60;;;;;;;10.09;100.00;97451.75;4970201;28;20065;-75
2021/05/25 06:41:57;;;;;;;2.70;0.60;;;;;;;10.11;100.00;97458.44;4970856;28;20050;-74
2021/05/25 06:44:23;;;;;;;2.53;0.75;;;;;;;10.26;100.00;97463.41;5035839;28;20448;-78
2021/05/25 06:46:50;;;;;;;3.50;0.63;;;;;;;10.37;100.00;97443.06;4970318;28;20106;-76
2021/05/25 06:49:17;;;;;;;1.30;0.50;;;;;;;10.40;100.00;97447.81;4970893;28;20046;-76
2021/05/25 06:51:45;;;;;;;3.95;0.75;;;;;;;10.50;100.00;97447.47;5055468;28;20047;-75
2021/05/25 06:54:13;;;;;;;2.03;0.50;;;;;;;10.42;100.00;97442.91;4971550;28;20058;-78
2021/05/25 06:56:40;;;;;;;2.22;0.50;;;;;;;10.38;100.00;97452.75;5037176;28;20501;-76
2021/05/25 06:59:06;;;;;;;5.45;0.68;;;;;;;10.28;100.00;97439.53;5020779;28;20564;-74
2021/05/25 07:01:33;;;;;;;2.63;0.50;;;;;;;10.29;100.00;97426.81;4977255;28;20043;-76
2021/05/25 07:04:01;;;;;;;1.85;0.40;;;;;;;10.43;100.00;97441.75;4970068;28;20085;-75
2021/05/25 07:06:27;;;;;;;2.20;0.70;;;;;;;11.18;100.00;97445.81;4970197;28;20100;-75
2021/05/25 07:08:54;;;;;;;2.83;0.63;;;;;;;11.64;100.00;97442.31;4970617;28;20096;-76
2021/05/25 07:11:21;;;;;;;3.25;0.75;;;;;;;11.55;100.00;97430.69;4970535;28;20047;-76
2021/05/25 07:13:48;;;;;;;2.33;0.60;;;;;;;11.36;100.00;97449.25;4969913;28;20122;-75
2021/05/25 07:16:15;;;;;;;3.72;0.82;;;;;;;11.24;100.00;97448.03;4969467;28;20054;-75
2021/05/25 07:18:42;;;;;;;2.97;1.08;;;;;;;11.13;100.00;97443.28;5027214;28;20046;-75
2021/05/25 07:21:09;;;;;;;4.45;0.63;;;;;;;10.99;100.00;97443.47;4988833;28;20277;-75
2021/05/25 07:23:36;;;;;;;4.47;0.70;;;;;;;11.33;100.00;97450.69;4990077;28;20100;-74
2021/05/25 07:26:04;;;;;;;2.38;0.50;;;;;;;11.67;100.00;97444.34;4989182;28;20043;-75
2021/05/25 07:28:31;;;;;;;1.92;0.70;;;;;;;11.39;100.00;97451.31;4979127;28;20129;-75
2021/05/25 07:30:59;;;;;;;1.35;0.50;;;;;;;11.02;100.00;97437.41;4969044;28;20115;-77
2021/05/25 07:33:26;;;;;;;2.30;0.65;;;;;;;11.10;100.00;97452.03;4970071;28;20046;-74
2021/05/25 07:35:53;;;;;;;2.03;0.57;;;;;;;11.19;100.00;97456.34;5035611;28;20076;-74
2021/05/25 07:38:21;;;;;;;3.03;0.40;;;;;;;11.20;100.00;97449.00;4968379;28;20436;-76
2021/05/25 07:40:48;;;;;;;2.92;0.50;;;;;;;11.27;100.00;97450.09;4968766;28;20450;-74
2021/05/25 07:43:15;;;;;;;2.30;0.40;;;;;;;11.32;100.00;97446.41;5034550;28;20061;-74
2021/05/25 07:45:43;;;;;;;2.63;0.70;;;;;;;11.48;100.00;97452.91;4969584;28;20505;-77
2021/05/25 07:48:09;;;;;;;1.67;0.50;;;;;;;11.60;100.00;97460.34;4969316;28;20042;-77
2021/05/25 07:50:36;;;;;;;4.05;0.50;;;;;;;11.62;100.00;97442.63;4969856;28;20525;-75
2021/05/25 07:53:03;;;;;;;2.00;0.47;;;;;;;11.61;100.00;97451.91;5035282;28;20142;-76
2021/05/25 07:55:31;;;;;;;2.95;0.50;;;;;;;11.57;100.00;97467.22;4968804;28;20047;-76
2021/05/25 07:57:59;;;;;;;2.08;0.50;;;;;;;12.05;100.00;97471.50;5034831;28;20043;-76
2021/05/25 08:00:27;;;;;;;3.25;0.47;;;;;;;12.59;100.00;97472.41;4969751;28;20070;-77
2021/05/25 08:02:54;;;;;;;1.85;0.40;;;;;;;12.35;100.00;97457.56;5035764;28;20055;-76
2021/05/25 08:05:22;;;;;;;2.10;0.40;;;;;;;12.40;100.00;97457.34;5019256;28;20065;-76
2021/05/25 08:07:48;;;;;;;2.30;0.35;;;;;;;12.16;100.00;97454.47;4970076;28;20042;-75
2021/05/25 08:10:16;;;;;;;4.25;0.50;;;;;;;12.16;100.00;97475.38;5035757;28;20045;-76
2021/05/25 08:12:44;;;;;;;1.73;0.40;;;;;;;12.00;100.00;97467.03;4968646;28;20494;-76
2021/05/25 08:15:13;;;;;;;4.57;0.70;;;;;;;12.26;100.00;97475.03;5034995;28;20050;-72
2021/05/25 08:20:44;;;;;;;3.03;0.60;;;;;;;12.48;100.00;97463.84;4992916;28;20094;-81
2021/05/25 08:23:26;;;;;;;13.38;1.50;;;;;;;12.48;100.00;97478.22;4986656;28;20050;-82
2021/05/25 08:25:53;;;;;;;13.13;1.10;;;;;;;12.57;100.00;97477.38;4976939;28;20053;-81
2021/05/25 08:28:21;;;;;;;31.13;2.42;;;;;;;12.75;100.00;97490.47;5033898;28;20058;-80
2021/05/25 08:30:51;;;;;;;2.42;0.60;;;;;;;12.93;100.00;97494.63;5078319;28;20051;-80
2021/05/25 08:33:19;;;;;;;1.48;0.50;;;;;;;12.82;100.00;97498.09;5080470;28;20107;-79
2021/05/25 08:35:48;;;;;;;5.82;0.55;;;;;;;12.82;100.00;97485.31;5099141;27;20048;-79
2021/05/25 08:38:19;;;;;;;3.35;0.40;;;;;;;12.52;100.00;97481.84;5079630;28;20046;-81
2021/05/25 08:40:47;;;;;;;8.73;0.73;;;;;;;12.62;100.00;97486.09;5083481;28;20032;-79
2021/05/25 08:43:14;;;;;;;1.48;0.40;;;;;;;12.58;100.00;97478.94;5090331;28;20119;-80
2021/05/25 08:45:41;;;;;;;2.33;0.60;;;;;;;12.63;100.00;97484.97;5076634;28;20097;-79
2021/05/25 08:48:11;;;;;;;1.75;0.40;;;;;;;12.87;100.00;97490.53;5076924;28;20465;-80
2021/05/25 08:50:58;;;;;;;5.80;1.02;;;;;;;12.78;100.00;97489.00;5079212;28;20044;-79
2021/05/25 08:53:29;;;;;;;2.88;0.40;;;;;;;12.72;100.00;97487.63;5078937;28;20104;-81
2021/05/25 08:55:56;;;;;;;4.20;0.50;;;;;;;12.95;100.00;97478.81;5090675;28;20066;-78
2021/05/25 08:58:27;;;;;;;1.92;0.50;;;;;;;12.94;100.00;97492.69;5085816;28;20071;-78
2021/05/25 09:00:57;;;;;;;3.78;0.50;;;;;;;13.02;100.00;97489.13;5032860;28;20463;-80
2021/05/25 09:03:24;;;;;;;3.35;0.82;;;;;;;13.41;100.00;97499.47;5077264;28;20458;-80
2021/05/25 09:06:07;;;;;;;2.63;0.63;;;;;;;13.01;95.85;97498.38;5077854;28;20050;-80
2021/05/25 09:08:38;;;;;;;7.18;0.77;;;;;;;12.47;100.00;97500.25;5080166;28;20034;-81
2021/05/25 09:11:10;;;;;;;5.35;0.88;;;;;;;12.74;100.00;97494.31;5062949;28;20041;-79
2021/05/25 09:13:37;;;;;;;4.32;0.55;;;;;;;13.43;100.00;97490.97;5057733;28;20051;-80
2021/05/25 09:16:09;;;;;;;1.85;0.45;;;;;;;13.19;100.00;97501.78;5079440;28;20048;-79
2021/05/25 09:18:58;;;;;;;8.27;0.52;;;;;;;13.38;100.00;97513.75;5074690;28;20091;-78
2021/05/25 09:21:29;;;;;;;3.17;0.45;;;;;;;12.93;100.00;97508.22;5083150;28;20040;-79
2021/05/25 09:23:56;;;;;;;4.35;0.60;;;;;;;12.70;100.00;97498.03;5078770;28;20044;-78
2021/05/25 09:26:34;;;;;;;38.08;2.53;;;;;;;13.13;100.00;97497.69;5070024;28;20048;-79
2021/05/25 09:29:05;;;;;;;4.43;0.47;;;;;;;13.18;97.53;97495.56;5081017;27;20040;-81
2021/05/25 09:31:46;;;;;;;2.58;0.70;;;;;;;12.91;100.00;97510.47;5096363;28;20059;-79
2021/05/25 09:34:20;;;;;;;3.63;0.57;;;;;;;12.39;100.00;97504.63;5096985;28;20426;-78
2021/05/25 09:37:09;;;;;;;7.78;0.55;;;;;;;12.43;100.00;97500.16;5077166;28;20047;-78
2021/05/25 09:39:35;;;;;;;1.23;0.50;;;;;;;12.44;100.00;97514.50;5094799;28;20032;-79
2021/05/25 09:42:07;;;;;;;18.48;1.10;;;;;;;12.59;100.00;97513.13;5094061;28;20040;-80
2021/05/25 09:44:37;;;;;;;1.65;0.30;;;;;;;13.94;91.29;97511.31;5101195;28;20059;-81
2021/05/25 09:47:05;;;;;;;2.03;0.70;;;;;;;14.61;80.20;97486.22;5076332;28;20047;-78
2021/05/25 09:49:33;;;;;;;11.23;0.73;;;;;;;14.73;70.03;97494.41;5092164;28;20898;-78
2021/05/25 09:52:08;;;;;;;2.35;0.45;;;;;;;14.15;76.28;97503.84;5057930;28;20123;-79
2021/05/25 09:54:35;;;;;;;3.30;0.50;;;;;;;13.89;77.03;97519.72;5063357;28;20068;-81
2021/05/25 09:57:06;;;;;;;8.30;0.95;;;;;;;15.71;63.81;97493.63;5072637;28;20682;-80
2021/05/25 09:59:35;;;;;;;8.32;0.50;;;;;;;14.90;67.61;97505.00;5071671;28;20049;-78
2021/05/25 10:02:19;;;;;;;0.55;0.28;;;;;;;14.38;65.46;97505.00;5075478;28;20090;-80
2021/05/25 10:05:05;;;;;;;1.00;0.40;;;;;;;13.84;67.58;97503.63;5058680;28;20697;-80
2021/05/25 10:07:35;;;;;;;2.92;0.40;;;;;;;13.58;66.60;97496.56;5050220;28;20041;-79
2021/05/25 10:10:05;;;;;;;4.53;0.30;;;;;;;13.08;84.56;97504.91;5058720;28;20289;-79
2021/05/25 10:12:32;;;;;;;1.73;0.40;;;;;;;12.99;93.06;97517.75;5080630;28;20040;-80
2021/05/25 10:14:59;;;;;;;0.95;0.22;;;;;;;12.82;86.31;97501.59;5079303;28;20256;-80
2021/05/25 10:17:44;;;;;;;5.35;0.40;;;;;;;12.71;83.17;97511.28;5080337;28;20044;-80
2021/05/25 10:20:13;;;;;;;0.82;0.40;;;;;;;12.91;80.42;97496.09;5096919;28;20547;-81
2021/05/25 10:22:40;;;;;;;5.28;0.50;;;;;;;13.42;84.92;97511.16;5105129;28;20099;-78
2021/05/25 10:25:11;;;;;;;3.55;0.40;;;;;;;13.22;74.62;97498.38;5104112;28;20036;-78
2021/05/25 10:27:45;;;;;;;;;;;;;;;13.52;80.43;97506.06;5091702;28;20045;-80
2021/05/25 10:30:25;;;;;;;0.93;0.30;;;;;;;15.24;69.88;97498.97;5079882;28;19920;-81
2021/05/25 10:33:12;;;;;;;0.32;0.30;;;;;;;15.52;64.56;97477.13;5087097;28;20082;-78
2021/05/25 10:35:55;;;;;;;0.60;0.30;;;;;;;14.55;64.30;97485.69;5077738;28;20067;-80
2021/05/25 10:38:28;;;;;;;1.45;0.30;;;;;;;14.31;91.76;97477.56;5058772;28;20123;-81
2021/05/25 10:41:08;;;;;;;3.85;0.55;;;;;;;13.57;89.13;97492.28;5057981;28;20041;-79
2021/05/25 10:43:35;;;;;;;1.45;0.30;;;;;;;13.30;82.84;97495.59;5075369;28;20072;-79
2021/05/25 10:46:11;;;;;;;0.47;0.22;;;;;;;13.09;84.73;97487.47;5105976;28;20182;-78
2021/05/25 10:49:13;;;;;;;1.67;0.30;;;;;;;14.22;87.14;97487.75;5115706;27;20032;-80
2021/05/25 10:51:52;;;;;;;1.10;0.30;;;;;;;14.15;80.63;97476.63;5078871;28;20039;-79
2021/05/25 10:54:50;;;;;;;2.65;0.45;;;;;;;14.02;76.15;97472.31;5095019;28;20055;-79
2021/05/25 10:57:49;;;;;;;6.93;0.40;;;;;;;13.69;81.87;97494.19;5077971;28;20036;-80
2021/05/25 11:00:18;;;;;;;6.05;0.50;;;;;;;13.33;100.00;97502.28;5078059;28;20753;-79
2021/05/25 11:02:54;;;;;;;2.65;0.30;;;;;;;13.03;100.00;97491.50;5097231;28;20067;-83
2021/05/25 11:05:53;;;;;;;2.63;0.35;;;;;;;15.18;87.90;97507.72;5070739;28;20056;-83
2021/05/25 11:08:25;;;;;;;0.82;0.30;;;;;;;16.37;81.09;97509.25;5061843;28;20047;-80
2021/05/25 11:11:13;;;;;;;3.85;0.55;;;;;;;18.18;58.18;97496.06;5096230;28;20048;-79
2021/05/25 11:13:43;;;;;;;0.95;0.30;;;;;;;18.17;55.94;97482.75;5076631;28;20075;-79
2021/05/25 11:16:17;;;;;;;2.45;0.40;;;;;;;18.55;51.31;97501.75;5096111;28;20407;-86
2021/05/25 11:19:00;;;;;;;1.20;0.40;;;;;;;18.46;50.19;97469.09;5078467;28;20048;-83
2021/05/25 11:21:42;;;;;;;0.45;0.25;;;;;;;16.92;57.53;97476.16;5077809;28;20040;-81
2021/05/25 11:27:28;;;;;;;2.95;0.28;;;;;;;15.70;59.09;97483.84;5078152;28;20047;-79
2021/05/25 11:29:59;;;;;;;4.38;0.30;;;;;;;14.80;60.34;97500.03;5101718;28;20044;-80
2021/05/25 11:32:40;;;;;;;0.85;0.20;;;;;;;14.56;72.43;97506.34;5100267;28;20052;-79
2021/05/25 11:35:22;;;;;;;6.95;0.28;;;;;;;12.32;100.00;97569.50;5105732;27;20479;-80
2021/05/25 11:37:59;;;;;;;1.52;0.22;;;;;;;11.04;100.00;97573.34;5096270;28;20660;-79
2021/05/25 11:40:27;;;;;;;2.72;0.30;;;;;;;9.78;100.00;97600.53;5100907;28;20055;-82
2021/05/25 11:42:57;;;;;;;0.25;0.10;;;;;;;9.04;100.00;97558.84;5102010;28;20067;-81
2021/05/25 11:45:31;;;;;;;2.00;0.20;;;;;;;9.31;100.00;97577.66;5083288;28;20040;-81
2021/05/25 11:48:00;;;;;;;3.10;0.30;;;;;;;12.18;100.00;97557.28;5092696;28;20047;-81
2021/05/25 11:50:28;;;;;;;0.20;0.20;;;;;;;12.11;100.00;97559.69;5094230;28;20109;-79